Time;durP1;ratioP1;P1;durP2;ratioP2;P2;SDS_P1;SDS_P2;PMS_P1;PMS_P2;Temp;Humidity;BMP_temperature;BMP_pressure;BME280_temperature;BME280_humidity;BME280_pressure;Samples;Min_cycle;Max_cycle;Signal;HPM_P1;HPM_P2
2023/08/18 00:00:11;;;;;;;20.63;16.00;;;17.10;99.90;;;;;;5007030;28;20040;-56
2023/08/18 00:02:38;;;;;;;29.98;22.48;;;17.10;99.90;;;;;;5007169;28;20025;-56
2023/08/18 00:05:04;;;;;;;32.00;24.52;;;17.10;99.90;;;;;;5006759;28;20026;-56
2023/08/18 00:07:30;;;;;;;25.65;18.25;;;17.10;99.90;;;;;;5006858;28;20033;-56
2023/08/18 00:09:55;;;;;;;28.35;18.65;;;17.00;99.90;;;;;;5006844;28;20125;-56
2023/08/18 00:12:21;;;;;;;27.85;20.55;;;17.00;99.90;;;;;;5006713;28;20021;-56
2023/08/18 00:14:46;;;;;;;29.35;21.48;;;17.10;99.90;;;;;;5006506;28;20446;-56
2023/08/18 00:17:12;;;;;;;29.30;22.02;;;17.00;99.90;;;;;;5006408;28;20045;-56
2023/08/18 00:19:37;;;;;;;23.50;18.58;;;17.00;99.90;;;;;;5006646;28;20042;-56
2023/08/18 00:22:03;;;;;;;27.33;19.83;;;17.00;99.90;;;;;;5005113;28;20083;-55
2023/08/18 00:24:28;;;;;;;28.65;21.00;;;17.00;99.90;;;;;;5005500;28;20079;-56
2023/08/18 00:26:54;;;;;;;39.58;23.05;;;17.00;99.90;;;;;;5005111;28;20095;-56
2023/08/18 00:29:19;;;;;;;31.40;20.45;;;17.00;99.90;;;;;;5005335;28;20034;-56
2023/08/18 00:31:45;;;;;;;22.30;17.60;;;17.00;99.90;;;;;;5006675;28;20087;-56
2023/08/18 00:34:11;;;;;;;27.67;19.48;;;17.00;99.90;;;;;;5006564;28;20022;-56
2023/08/18 00:36:36;;;;;;;24.55;18.08;;;17.00;99.90;;;;;;5004945;28;20342;-56
2023/08/18 00:39:02;;;;;;;23.42;18.63;;;17.00;99.90;;;;;;5006541;28;20090;-57
2023/08/18 00:41:28;;;;;;;29.38;20.75;;;17.00;99.90;;;;;;5006778;28;20030;-56
2023/08/18 00:43:54;;;;;;;28.80;20.65;;;17.00;99.90;;;;;;5006501;28;20015;-56
2023/08/18 00:46:20;;;;;;;25.73;19.38;;;17.00;99.90;;;;;;5006416;28;20379;-56
2023/08/18 00:48:47;;;;;;;20.70;15.90;;;16.90;99.90;;;;;;5006691;28;20407;-56
2023/08/18 00:51:13;;;;;;;31.23;19.88;;;16.90;99.90;;;;;;5006468;28;20014;-56
2023/08/18 00:53:43;;;;;;;23.17;18.08;;;16.90;99.90;;;;;;5006335;28;20029;-56
2023/08/18 00:56:09;;;;;;;19.77;15.38;;;16.90;99.90;;;;;;5005971;28;20030;-56
2023/08/18 00:58:36;;;;;;;36.28;20.15;;;17.00;99.90;;;;;;5005044;28;20267;-56
2023/08/18 01:01:03;;;;;;;17.75;14.73;;;16.90;99.90;;;;;;5006410;28;20045;-56
2023/08/18 01:03:30;;;;;;;18.73;15.23;;;16.90;99.90;;;;;;5005242;28;20394;-56
2023/08/18 01:05:56;;;;;;;19.95;15.77;;;16.90;99.90;;;;;;5009281;28;20018;-56
2023/08/18 01:08:21;;;;;;;23.17;15.93;;;16.90;99.90;;;;;;5009921;28;20509;-57
2023/08/18 01:11:00;;;;;;;16.48;13.50;;;16.90;99.90;;;;;;5009971;28;20037;-56
2023/08/18 01:14:06;;;;;;;19.58;14.77;;;17.00;99.90;;;;;;5010373;28;20026;-56
2023/08/18 01:16:33;;;;;;;19.13;15.57;;;17.00;99.90;;;;;;5004008;28;20391;-55
2023/08/18 01:18:59;;;;;;;21.52;17.67;;;17.00;99.90;;;;;;5009485;28;20046;-57
2023/08/18 01:21:25;;;;;;;18.88;15.52;;;16.90;99.90;;;;;;5009575;28;20021;-56
2023/08/18 01:23:51;;;;;;;22.02;15.70;;;16.90;99.90;;;;;;5009226;28;20105;-56
2023/08/18 01:26:17;;;;;;;20.95;15.18;;;17.00;99.90;;;;;;5009310;28;20377;-56
2023/08/18 01:28:43;;;;;;;15.88;13.13;;;16.90;99.90;;;;;;5008126;28;20432;-57
2023/08/18 01:31:20;;;;;;;18.23;15.13;;;16.90;99.90;;;;;;5009554;28;20036;-57
2023/08/18 01:33:52;;;;;;;25.95;18.90;;;16.90;99.90;;;;;;5009260;28;20340;-57
2023/08/18 01:36:21;;;;;;;31.52;20.60;;;17.00;99.90;;;;;;4992296;28;20078;-56
2023/08/18 01:38:48;;;;;;;21.02;16.40;;;17.00;99.90;;;;;;5009288;28;20033;-57
2023/08/18 01:41:21;;;;;;;22.35;16.65;;;17.00;99.90;;;;;;5009172;28;20014;-57
2023/08/18 01:43:47;;;;;;;30.25;16.83;;;17.00;99.90;;;;;;5008993;28;20025;-56
2023/08/18 01:46:13;;;;;;;21.48;15.82;;;17.00;99.90;;;;;;5007354;28;20360;-57
2023/08/18 01:48:38;;;;;;;18.20;14.00;;;16.90;99.90;;;;;;5009112;28;20041;-56
2023/08/18 01:51:04;;;;;;;17.02;13.05;;;17.00;99.90;;;;;;5009125;28;20108;-56
2023/08/18 01:53:29;;;;;;;15.90;12.57;;;17.00;99.90;;;;;;5009450;28;20073;-56
2023/08/18 01:55:55;;;;;;;14.48;11.43;;;16.90;99.90;;;;;;5008726;28;20033;-56
2023/08/18 01:58:21;;;;;;;21.58;11.77;;;16.90;99.90;;;;;;5001210;28;20026;-56
2023/08/18 02:00:47;;;;;;;13.63;11.23;;;16.90;99.90;;;;;;5007778;28;20406;-56
2023/08/18 02:03:12;;;;;;;12.82;11.07;;;16.90;99.90;;;;;;5007993;28;20010;-56
2023/08/18 02:05:39;;;;;;;15.85;12.15;;;16.90;99.90;;;;;;5008531;28;20058;-56
2023/08/18 02:08:05;;;;;;;11.85;9.55;;;16.90;99.90;;;;;;5008807;28;20021;-56
2023/08/18 02:10:31;;;;;;;10.23;9.18;;;16.80;99.90;;;;;;5007164;28;20436;-57
2023/08/18 02:12:57;;;;;;;10.52;8.98;;;16.80;99.90;;;;;;5032413;28;20131;-55
2023/08/18 02:15:22;;;;;;;12.38;10.15;;;16.80;99.90;;;;;;5008004;28;20033;-56
2023/08/18 02:17:48;;;;;;;11.48;9.85;;;16.70;99.90;;;;;;5001141;28;20398;-56
2023/08/18 02:20:13;;;;;;;12.45;8.43;;;16.80;99.90;;;;;;4999077;28;20060;-57
2023/08/18 02:22:39;;;;;;;11.13;9.82;;;16.80;99.90;;;;;;5007121;28;20026;-56
2023/08/18 02:25:05;;;;;;;10.48;9.10;;;16.70;99.90;;;;;;5006612;28;20026;-56
2023/08/18 02:27:30;;;;;;;11.82;10.27;;;16.70;99.90;;;;;;5009029;28;20360;-56
2023/08/18 02:29:56;;;;;;;13.45;9.25;;;16.70;99.90;;;;;;4998968;28;20375;-56
2023/08/18 02:32:22;;;;;;;10.65;9.43;;;16.70;99.90;;;;;;5002381;28;20029;-56
2023/08/18 02:34:47;;;;;;;14.63;10.07;;;16.70;99.90;;;;;;5001649;28;20038;-56
2023/08/18 02:37:13;;;;;;;9.45;8.43;;;16.70;99.90;;;;;;4999228;28;20057;-56
2023/08/18 02:39:39;;;;;;;9.73;8.77;;;16.80;99.90;;;;;;4996768;28;20338;-56
2023/08/18 02:42:05;;;;;;;11.82;9.30;;;16.80;99.90;;;;;;4997759;28;20095;-55
2023/08/18 02:44:31;;;;;;;12.95;9.60;;;16.80;99.90;;;;;;4996378;28;20092;-56
2023/08/18 02:46:57;;;;;;;8.77;7.60;;;16.80;99.90;;;;;;5000556;28;20091;-56
2023/08/18 02:49:23;;;;;;;11.57;7.85;;;16.80;99.90;;;;;;5002995;28;20030;-56
2023/08/18 02:51:48;;;;;;;10.60;8.57;;;16.80;99.90;;;;;;5005284;28;20033;-55
2023/08/18 02:54:14;;;;;;;11.20;9.02;;;16.80;99.90;;;;;;5008038;28;20061;-55
2023/08/18 02:56:39;;;;;;;9.23;7.63;;;16.90;99.90;;;;;;5007974;28;20038;-53
2023/08/18 02:59:05;;;;;;;9.05;7.35;;;16.90;99.90;;;;;;5008126;28;20447;-55
2023/08/18 03:01:30;;;;;;;9.43;8.05;;;16.90;99.90;;;;;;5008052;28;20030;-55
2023/08/18 03:03:56;;;;;;;8.77;7.40;;;16.90;99.90;;;;;;5007900;28;20350;-55
2023/08/18 03:06:21;;;;;;;11.27;7.38;;;16.90;99.90;;;;;;5007997;28;20032;-55
2023/08/18 03:08:47;;;;;;;9.80;7.78;;;16.90;99.90;;;;;;5008211;28;20030;-55
2023/08/18 03:11:12;;;;;;;7.93;7.03;;;16.90;99.90;;;;;;5008004;28;20455;-55
2023/08/18 03:13:38;;;;;;;8.70;6.93;;;16.90;99.90;;;;;;5007892;28;20029;-55
2023/08/18 03:16:04;;;;;;;9.35;7.38;;;16.90;99.90;;;;;;5007369;28;20095;-55
2023/08/18 03:18:30;;;;;;;8.65;6.97;;;16.90;99.90;;;;;;5008445;28;20065;-55
2023/08/18 03:21:00;;;;;;;10.98;7.32;;;16.90;99.90;;;;;;5008077;28;20054;-55
2023/08/18 03:23:25;;;;;;;6.77;6.13;;;16.90;99.90;;;;;;5007946;28;20022;-55
2023/08/18 03:25:51;;;;;;;7.85;5.97;;;16.90;99.90;;;;;;5007949;28;20350;-55
2023/08/18 03:28:17;;;;;;;6.35;5.75;;;17.00;99.90;;;;;;5007316;28;20399;-55
2023/08/18 03:30:42;;;;;;;9.77;5.78;;;17.00;99.90;;;;;;5007785;28;20037;-55
2023/08/18 03:33:08;;;;;;;6.05;5.45;;;17.00;99.90;;;;;;5006199;28;20030;-56
2023/08/18 03:35:37;;;;;;;8.18;5.53;;;17.00;99.90;;;;;;5007103;28;20030;-56
2023/08/18 03:38:03;;;;;;;8.23;4.95;;;17.00;99.90;;;;;;5007354;28;20030;-54
2023/08/18 03:40:29;;;;;;;6.18;5.57;;;17.00;99.90;;;;;;4999179;28;20021;-56
2023/08/18 03:42:54;;;;;;;6.35;4.45;;;17.00;99.90;;;;;;5007266;28;20022;-56
2023/08/18 03:45:20;;;;;;;5.55;5.00;;;17.00;99.90;;;;;;5007393;28;20072;-56
2023/08/18 03:47:45;;;;;;;5.25;4.53;;;17.00;99.90;;;;;;5007331;28;20038;-56
2023/08/18 03:50:11;;;;;;;4.90;4.28;;;17.00;99.90;;;;;;5006363;28;20122;-55
2023/08/18 03:52:37;;;;;;;4.93;4.43;;;17.00;99.90;;;;;;5007500;28;20026;-55
2023/08/18 03:55:03;;;;;;;5.18;4.68;;;17.00;99.90;;;;;;5005653;28;20049;-55
2023/08/18 03:57:28;;;;;;;5.97;4.22;;;17.00;99.90;;;;;;5007016;28;20022;-55
2023/08/18 03:59:55;;;;;;;8.57;4.45;;;17.10;99.90;;;;;;5007212;28;20076;-55
2023/08/18 04:02:21;;;;;;;10.25;4.72;;;17.00;99.90;;;;;;5006902;28;20025;-55
2023/08/18 04:04:47;;;;;;;5.00;4.50;;;17.10;99.90;;;;;;4999909;28;20034;-55
2023/08/18 04:07:13;;;;;;;4.47;4.07;;;17.00;99.90;;;;;;5005772;28;20601;-55
2023/08/18 04:09:39;;;;;;;6.72;4.25;;;17.00;99.90;;;;;;5007228;28;20040;-56
2023/08/18 04:12:04;;;;;;;5.32;4.60;;;17.00;99.90;;;;;;5005511;28;20107;-55
2023/08/18 04:14:30;;;;;;;6.57;3.95;;;17.00;99.90;;;;;;5006774;28;20028;-55
2023/08/18 04:16:55;;;;;;;5.40;4.40;;;17.00;99.90;;;;;;5006274;28;20036;-54
2023/08/18 04:19:21;;;;;;;7.22;4.55;;;16.90;99.90;;;;;;5006848;28;20018;-55
2023/08/18 04:21:46;;;;;;;7.22;4.57;;;16.90;99.90;;;;;;5005784;28;20624;-55
2023/08/18 04:24:13;;;;;;;7.95;4.22;;;16.90;99.90;;;;;;5006582;28;20018;-55
2023/08/18 04:26:39;;;;;;;5.07;4.32;;;16.80;99.90;;;;;;5006977;28;20014;-55
2023/08/18 04:29:05;;;;;;;4.75;3.70;;;16.80;99.90;;;;;;5012811;28;20075;-55
2023/08/18 04:31:30;;;;;;;6.95;4.57;;;16.80;99.90;;;;;;5006704;28;20074;-55
2023/08/18 04:33:56;;;;;;;6.15;4.50;;;16.80;99.90;;;;;;5006438;28;20534;-55
2023/08/18 04:36:23;;;;;;;4.97;4.30;;;16.80;99.90;;;;;;5006717;28;20022;-55
2023/08/18 04:38:48;;;;;;;8.93;4.57;;;16.80;99.90;;;;;;5007665;28;20030;-55
2023/08/18 04:41:14;;;;;;;7.32;4.03;;;16.80;99.90;;;;;;5010342;28;20026;-55
2023/08/18 04:43:39;;;;;;;5.65;4.05;;;16.70;99.90;;;;;;5010235;28;20026;-55
2023/08/18 04:46:05;;;;;;;5.85;4.45;;;16.70;99.90;;;;;;5010180;28;20495;-55
2023/08/18 04:48:30;;;;;;;7.55;4.18;;;16.70;99.90;;;;;;5010222;28;20030;-55
2023/08/18 04:50:56;;;;;;;5.63;3.65;;;16.70;99.90;;;;;;5010505;28;20094;-56
2023/08/18 04:53:21;;;;;;;4.03;3.63;;;16.70;99.90;;;;;;5010225;28;20123;-55
2023/08/18 04:55:47;;;;;;;5.50;3.65;;;16.60;99.90;;;;;;5001773;28;20056;-55
2023/08/18 04:58:12;;;;;;;4.82;4.20;;;16.60;99.90;;;;;;5010081;28;20026;-56
2023/08/18 05:00:42;;;;;;;5.90;3.60;;;16.70;99.90;;;;;;5010047;28;20029;-56
2023/08/18 05:03:08;;;;;;;4.55;4.05;;;16.60;99.90;;;;;;5009828;28;20014;-56
2023/08/18 05:05:38;;;;;;;4.75;4.07;;;16.60;99.90;;;;;;5009444;28;20022;-56
2023/08/18 05:08:04;;;;;;;5.45;4.13;;;16.70;99.90;;;;;;5016012;28;20457;-56
2023/08/18 05:10:29;;;;;;;5.07;4.57;;;16.60;99.90;;;;;;5046837;28;20113;-56
2023/08/18 05:12:55;;;;;;;4.80;4.22;;;16.70;99.90;;;;;;5009271;28;20615;-56
2023/08/18 05:15:21;;;;;;;6.45;4.28;;;16.70;99.90;;;;;;5008813;28;20056;-57
2023/08/18 05:17:48;;;;;;;4.88;4.05;;;16.70;99.90;;;;;;5009157;28;20059;-56
2023/08/18 05:20:14;;;;;;;5.50;3.80;;;16.70;99.90;;;;;;5008272;28;20091;-55
2023/08/18 05:22:40;;;;;;;11.82;4.55;;;16.70;99.90;;;;;;5008298;28;20475;-55
2023/08/18 05:25:07;;;;;;;9.80;4.47;;;16.70;99.90;;;;;;5009229;28;20018;-55
2023/08/18 05:27:33;;;;;;;6.18;4.88;;;16.70;99.90;;;;;;5009554;28;20021;-56
2023/08/18 05:29:59;;;;;;;4.78;4.28;;;16.80;99.90;;;;;;5009218;28;20635;-56
2023/08/18 05:32:25;;;;;;;5.03;4.32;;;16.80;99.90;;;;;;5009034;28;20028;-57
2023/08/18 05:34:55;;;;;;;4.45;3.72;;;16.90;99.90;;;;;;5009060;28;20029;-56
2023/08/18 05:37:20;;;;;;;3.97;3.57;;;16.90;99.90;;;;;;5009052;28;20387;-56
2023/08/18 05:39:46;;;;;;;4.72;4.32;;;16.90;99.90;;;;;;5009170;28;20018;-56
2023/08/18 05:42:12;;;;;;;6.18;4.65;;;17.00;99.90;;;;;;5008945;28;20499;-55
2023/08/18 05:44:37;;;;;;;6.72;4.68;;;17.00;99.90;;;;;;5008743;28;20026;-56
2023/08/18 05:47:03;;;;;;;8.60;4.53;;;17.10;99.90;;;;;;5008697;28;20398;-56
2023/08/18 05:49:29;;;;;;;6.07;4.28;;;17.10;99.90;;;;;;5008413;28;20098;-57
2023/08/18 05:51:54;;;;;;;4.90;4.07;;;17.10;99.90;;;;;;5007673;28;20105;-56
2023/08/18 05:54:20;;;;;;;4.35;3.63;;;17.10;99.90;;;;;;5008634;28;20494;-56
2023/08/18 05:56:45;;;;;;;5.65;3.72;;;17.20;99.90;;;;;;5008382;28;20504;-55
2023/08/18 05:59:11;;;;;;;6.82;4.03;;;17.30;99.90;;;;;;5006766;28;20037;-56
2023/08/18 06:01:36;;;;;;;6.13;4.15;;;17.30;99.90;;;;;;5002088;28;20026;-56
2023/08/18 06:04:02;;;;;;;10.07;4.88;;;17.30;99.90;;;;;;5008007;28;20030;-56
2023/08/18 06:06:28;;;;;;;7.47;4.30;;;17.40;99.90;;;;;;5008191;28;20054;-56
2023/08/18 06:08:53;;;;;;;7.38;4.15;;;17.40;99.90;;;;;;5008972;28;20026;-56
2023/08/18 06:11:19;;;;;;;5.97;4.45;;;17.50;99.90;;;;;;5007340;28;20102;-56
2023/08/18 06:13:44;;;;;;;6.50;3.90;;;17.50;99.90;;;;;;5008608;28;20528;-56
2023/08/18 06:16:10;;;;;;;5.25;3.40;;;17.60;99.90;;;;;;5006861;28;20195;-56
2023/08/18 06:18:35;;;;;;;6.10;4.38;;;17.60;99.90;;;;;;5006706;28;20121;-56
2023/08/18 06:21:01;;;;;;;9.80;4.18;;;17.60;99.90;;;;;;5006765;28;20046;-56
2023/08/18 06:23:27;;;;;;;5.32;3.78;;;17.60;99.90;;;;;;5007144;28;20087;-56
2023/08/18 06:25:56;;;;;;;4.13;3.60;;;17.60;99.90;;;;;;5007024;28;20083;-56
2023/08/18 06:28:22;;;;;;;7.45;4.45;;;17.70;99.90;;;;;;5006913;28;20095;-56
2023/08/18 06:30:47;;;;;;;5.00;3.65;;;17.70;99.90;;;;;;5007901;28;20487;-56
2023/08/18 06:33:13;;;;;;;4.88;4.07;;;17.70;99.90;;;;;;5008041;28;20441;-56
2023/08/18 06:35:38;;;;;;;8.30;4.10;;;17.80;99.90;;;;;;5006354;28;20037;-56
2023/08/18 06:38:04;;;;;;;5.00;4.00;;;17.90;99.90;;;;;;5006701;28;20037;-56
2023/08/18 06:40:29;;;;;;;6.38;4.60;;;17.90;99.90;;;;;;5008181;28;20022;-56
2023/08/18 06:42:55;;;;;;;8.07;3.90;;;18.00;99.90;;;;;;5008077;28;20057;-56
2023/08/18 06:45:20;;;;;;;11.23;4.03;;;18.10;99.90;;;;;;4989185;28;20026;-57
2023/08/18 06:47:46;;;;;;;6.40;3.90;;;18.20;99.90;;;;;;5008242;28;20041;-57
2023/08/18 06:50:12;;;;;;;6.78;3.80;;;18.20;99.90;;;;;;5008205;28;20482;-56
2023/08/18 06:52:38;;;;;;;3.83;3.42;;;18.30;99.90;;;;;;5008110;28;20038;-57
2023/08/18 06:55:03;;;;;;;5.03;4.05;;;18.30;99.90;;;;;;5007265;28;20513;-57
2023/08/18 06:57:29;;;;;;;8.65;3.95;;;18.50;99.90;;;;;;5007901;28;20026;-56
2023/08/18 06:59:55;;;;;;;4.75;3.47;;;18.50;99.90;;;;;;5007847;28;20022;-57
2023/08/18 07:02:20;;;;;;;8.13;4.65;;;18.60;99.90;;;;;;5005682;28;20024;-57
2023/08/18 07:04:46;;;;;;;5.70;4.00;;;18.70;99.90;;;;;;5008198;28;20034;-56
2023/08/18 07:07:11;;;;;;;6.22;3.97;;;18.80;99.90;;;;;;5007602;28;20033;-56
2023/08/18 07:09:37;;;;;;;4.47;3.72;;;18.80;99.90;;;;;;5007697;28;20090;-56
2023/08/18 07:12:03;;;;;;;5.75;3.33;;;18.90;99.90;;;;;;5007563;28;20037;-56
2023/08/18 07:14:29;;;;;;;4.47;3.63;;;19.00;99.90;;;;;;4999390;28;20467;-57
2023/08/18 07:16:55;;;;;;;4.60;3.13;;;19.10;99.90;;;;;;5007194;28;20108;-56
2023/08/18 07:19:20;;;;;;;6.18;3.35;;;19.30;99.90;;;;;;4999516;28;20022;-57
2023/08/18 07:21:46;;;;;;;6.45;3.78;;;19.40;99.90;;;;;;5007739;28;20054;-56
2023/08/18 07:24:12;;;;;;;6.60;4.05;;;19.50;99.90;;;;;;5007397;28;20026;-56
2023/08/18 07:26:37;;;;;;;7.35;3.60;;;19.60;99.90;;;;;;5006983;28;20022;-56
2023/08/18 07:29:04;;;;;;;4.82;3.60;;;19.70;99.90;;;;;;5007303;28;20028;-57
2023/08/18 07:31:30;;;;;;;5.68;3.63;;;19.80;99.90;;;;;;5040003;28;20109;-57
2023/08/18 07:33:57;;;;;;;6.95;4.20;;;19.90;99.90;;;;;;4999146;28;20607;-57
2023/08/18 07:36:22;;;;;;;6.43;4.03;;;19.90;99.90;;;;;;5005398;28;20116;-58
2023/08/18 07:38:48;;;;;;;5.20;3.60;;;19.90;99.90;;;;;;5007419;28;20156;-57
2023/08/18 07:41:14;;;;;;;6.18;3.45;;;20.00;99.90;;;;;;5007312;28;20018;-57
2023/08/18 07:43:39;;;;;;;6.05;3.55;;;20.10;99.90;;;;;;5005894;28;20053;-57
2023/08/18 07:46:05;;;;;;;8.15;3.55;;;20.20;99.90;;;;;;5007077;28;20117;-57
2023/08/18 07:48:31;;;;;;;5.82;4.13;;;20.40;99.90;;;;;;4999133;28;20022;-57
2023/08/18 07:50:56;;;;;;;6.32;4.38;;;20.50;99.90;;;;;;5006991;28;20030;-57
2023/08/18 07:53:22;;;;;;;6.70;4.00;;;20.60;99.90;;;;;;5006747;28;20531;-57
2023/08/18 07:55:47;;;;;;;7.57;3.92;;;20.50;99.90;;;;;;5006967;28;20155;-56
2023/08/18 07:58:13;;;;;;;6.03;4.05;;;20.80;99.90;;;;;;5006652;28;20168;-57
2023/08/18 08:00:39;;;;;;;8.52;4.00;;;20.90;99.90;;;;;;5006775;28;20033;-57
2023/08/18 08:03:04;;;;;;;5.50;3.55;;;21.20;99.90;;;;;;5006985;28;20502;-57
2023/08/18 08:05:30;;;;;;;8.88;4.47;;;21.40;99.90;;;;;;5006305;28;20026;-57
2023/08/18 08:07:56;;;;;;;5.32;3.80;;;21.80;99.90;;;;;;5006054;28;20030;-57
2023/08/18 08:10:21;;;;;;;5.53;3.72;;;22.10;99.90;;;;;;5007369;28;20523;-57
2023/08/18 08:12:48;;;;;;;9.20;3.17;;;22.60;99.90;;;;;;5006511;28;20030;-57
2023/08/18 08:15:14;;;;;;;8.77;4.03;;;23.30;99.90;;;;;;5005896;28;20405;-57
2023/08/18 08:17:40;;;;;;;8.25;3.70;;;24.50;99.90;;;;;;5006340;28;20034;-58
2023/08/18 08:20:19;;;;;;;7.70;3.17;;;25.70;99.90;;;;;;5006621;28;20433;-58
2023/08/18 08:22:47;;;;;;;6.38;3.47;;;26.80;99.90;;;;;;5006198;28;20391;-57
2023/08/18 08:25:13;;;;;;;6.70;3.28;;;28.00;99.90;;;;;;5005997;28;20065;-57
2023/08/18 08:27:39;;;;;;;5.70;3.17;;;28.20;99.90;;;;;;5005141;28;20029;-56
2023/08/18 08:30:07;;;;;;;5.32;2.35;;;29.10;99.90;;;;;;5005151;28;20045;-55
2023/08/18 08:32:33;;;;;;;10.35;7.03;;;30.10;98.70;;;;;;5006414;28;20395;-56
2023/08/18 08:34:58;;;;;;;8.70;3.53;;;30.70;97.60;;;;;;5006030;28;20032;-56
2023/08/18 08:37:24;;;;;;;5.15;2.70;;;31.60;96.00;;;;;;5004811;28;20368;-55
2023/08/18 08:39:49;;;;;;;4.22;2.13;;;32.20;93.30;;;;;;5002833;28;20034;-56
2023/08/18 08:42:15;;;;;;;5.70;2.60;;;32.50;93.20;;;;;;4998530;28;20029;-56
2023/08/18 08:44:40;;;;;;;5.05;2.60;;;33.10;91.80;;;;;;4995213;28;20033;-56
2023/08/18 08:47:06;;;;;;;3.38;2.95;;;32.80;91.90;;;;;;4993219;28;20513;-56
2023/08/18 08:49:34;;;;;;;2.63;2.17;;;33.70;88.90;;;;;;4992617;28;20027;-56
2023/08/18 08:52:05;;;;;;;4.13;2.90;;;34.50;87.50;;;;;;4994148;28;20037;-56
2023/08/18 08:54:36;;;;;;;3.85;2.92;;;34.70;86.50;;;;;;4992229;28;20046;-57
2023/08/18 08:57:05;;;;;;;3.20;2.67;;;34.50;86.60;;;;;;4993694;28;20026;-57
2023/08/18 08:59:31;;;;;;;3.03;2.65;;;34.70;86.00;;;;;;4992172;28;20026;-57
2023/08/18 09:01:56;;;;;;;5.60;3.38;;;34.50;87.00;;;;;;4994424;28;20364;-57
2023/08/18 09:04:22;;;;;;;3.88;2.45;;;34.60;84.80;;;;;;4991735;28;20018;-58
2023/08/18 09:06:48;;;;;;;2.92;2.53;;;34.90;85.00;;;;;;4993936;28;20042;-57
2023/08/18 09:09:14;;;;;;;4.15;3.00;;;35.30;83.20;;;;;;4992487;28;20033;-57
2023/08/18 09:11:46;;;;;;;3.47;3.17;;;35.50;83.30;;;;;;5001289;28;20026;-57
2023/08/18 09:14:16;;;;;;;4.47;3.17;;;35.70;81.10;;;;;;4996572;28;20110;-58
2023/08/18 09:16:44;;;;;;;5.70;2.90;;;36.00;79.60;;;;;;5004148;28;20041;-57
2023/08/18 09:19:15;;;;;;;3.10;2.63;;;36.60;79.50;;;;;;5005824;28;20041;-58
2023/08/18 09:21:41;;;;;;;4.82;3.22;;;37.40;79.00;;;;;;5006205;28;20261;-57
2023/08/18 09:24:08;;;;;;;4.90;3.15;;;37.30;78.10;;;;;;5006002;28;20489;-58
2023/08/18 09:26:33;;;;;;;5.43;3.22;;;37.00;77.50;;;;;;5001560;28;20050;-58
2023/08/18 09:28:59;;;;;;;6.60;4.75;;;37.30;75.60;;;;;;5009278;28;20118;-58
2023/08/18 09:31:25;;;;;;;6.43;5.15;;;37.20;75.90;;;;;;5005422;28;20068;-58
2023/08/18 09:33:51;;;;;;;4.78;3.30;;;37.30;75.80;;;;;;5008539;28;20022;-58
2023/08/18 09:36:18;;;;;;;4.75;3.28;;;36.40;75.40;;;;;;5008406;28;20032;-58
2023/08/18 09:38:44;;;;;;;5.25;3.00;;;36.90;76.70;;;;;;5009222;28;20018;-58
2023/08/18 09:41:12;;;;;;;4.07;3.05;;;36.90;77.00;;;;;;5004792;28;20025;-58
2023/08/18 09:43:38;;;;;;;4.30;2.78;;;37.40;76.40;;;;;;5008259;28;20402;-58
2023/08/18 09:46:05;;;;;;;6.00;3.45;;;37.90;75.10;;;;;;5001145;28;20030;-58
2023/08/18 09:48:35;;;;;;;3.95;3.00;;;38.10;73.90;;;;;;5002386;28;20033;-58
2023/08/18 09:51:05;;;;;;;6.38;3.10;;;37.90;71.20;;;;;;4998982;28;20034;-58
2023/08/18 09:53:31;;;;;;;3.60;3.10;;;38.40;74.30;;;;;;4999275;28;20499;-58
2023/08/18 09:56:08;;;;;;;5.70;3.50;;;37.40;74.80;;;;;;5008323;28;20053;-58
2023/08/18 09:58:43;;;;;;;4.75;3.78;;;37.60;75.20;;;;;;5008368;28;20499;-58
2023/08/18 10:01:10;;;;;;;4.03;3.60;;;37.70;73.30;;;;;;5008765;28;20026;-58
2023/08/18 10:03:58;;;;;;;4.10;3.20;;;37.90;76.10;;;;;;5007001;28;20022;-58
2023/08/18 10:06:24;;;;;;;4.97;3.92;;;38.30;74.10;;;;;;4962242;28;20047;-58
2023/08/18 10:08:51;;;;;;;5.88;3.40;;;38.70;71.10;;;;;;4961943;28;20117;-57
2023/08/18 10:11:17;;;;;;;5.57;3.30;;;39.30;71.60;;;;;;4982165;28;20029;-58
2023/08/18 10:13:42;;;;;;;8.68;4.20;;;39.50;71.20;;;;;;4997962;28;20045;-58
2023/08/18 10:16:09;;;;;;;5.97;3.40;;;39.30;72.00;;;;;;5007816;28;20022;-58
2023/08/18 10:18:34;;;;;;;7.07;3.75;;;39.80;70.70;;;;;;5000179;28;20045;-58
2023/08/18 10:21:00;;;;;;;5.43;3.53;;;39.40;69.40;;;;;;5008262;28;20026;-58
2023/08/18 10:23:29;;;;;;;6.95;3.80;;;39.50;69.10;;;;;;5010511;28;20018;-58
2023/08/18 10:25:55;;;;;;;4.32;3.38;;;40.00;69.60;;;;;;5037817;28;20252;-58
2023/08/18 10:28:26;;;;;;;6.18;3.67;;;40.30;68.70;;;;;;5007801;28;20038;-58
2023/08/18 10:31:07;;;;;;;4.38;3.60;;;39.60;68.70;;;;;;5008218;28;20106;-58
2023/08/18 10:33:37;;;;;;;5.88;3.80;;;39.10;70.80;;;;;;5007122;28;20021;-58
2023/08/18 10:36:04;;;;;;;4.18;3.17;;;39.20;69.60;;;;;;5008205;28;20033;-58
2023/08/18 10:38:30;;;;;;;3.85;3.10;;;39.40;68.90;;;;;;5007948;28;20095;-57
2023/08/18 10:40:56;;;;;;;4.25;3.65;;;39.90;69.70;;;;;;5008257;28;20025;-57
2023/08/18 10:43:26;;;;;;;4.45;3.22;;;39.80;70.70;;;;;;5008038;28;20437;-57
2023/08/18 10:46:00;;;;;;;3.85;3.25;;;39.50;70.60;;;;;;5006462;28;20048;-57
2023/08/18 10:48:30;;;;;;;5.78;3.63;;;39.90;68.50;;;;;;5006687;28;20026;-57
2023/08/18 10:50:56;;;;;;;4.03;3.55;;;39.70;70.30;;;;;;5008091;28;20046;-58
2023/08/18 10:53:21;;;;;;;6.43;4.03;;;39.90;70.20;;;;;;5007852;28;20053;-58
2023/08/18 10:55:47;;;;;;;4.00;3.50;;;40.10;68.50;;;;;;5007577;28;20125;-58
2023/08/18 10:58:14;;;;;;;6.65;3.50;;;40.40;68.50;;;;;;5007819;28;20473;-58
2023/08/18 11:00:41;;;;;;;3.65;3.25;;;40.30;72.00;;;;;;5007879;28;20014;-58
2023/08/18 11:03:07;;;;;;;4.25;3.28;;;40.60;68.90;;;;;;5007719;28;20101;-58
2023/08/18 11:05:33;;;;;;;5.80;3.60;;;40.60;69.10;;;;;;5006024;28;20021;-58
2023/08/18 11:08:00;;;;;;;4.88;3.60;;;40.70;67.80;;;;;;5007776;28;20305;-58
2023/08/18 11:10:26;;;;;;;4.03;3.10;;;40.50;68.20;;;;;;5007801;28;20025;-58
2023/08/18 11:12:54;;;;;;;4.60;3.83;;;40.60;68.20;;;;;;5007576;28;20498;-58
2023/08/18 11:15:21;;;;;;;4.35;3.95;;;40.80;68.50;;;;;;5007165;28;20113;-58
2023/08/18 11:17:47;;;;;;;8.20;4.03;;;40.70;68.10;;;;;;5007286;28;20079;-58
2023/08/18 11:20:13;;;;;;;6.03;3.90;;;40.60;69.70;;;;;;5006282;28;20018;-58
2023/08/18 11:22:45;;;;;;;4.53;3.30;;;40.60;68.70;;;;;;5007276;28;20022;-58
2023/08/18 11:25:11;;;;;;;6.03;3.92;;;40.30;68.40;;;;;;5007096;28;20018;-58
2023/08/18 11:27:40;;;;;;;5.93;3.40;;;40.30;68.20;;;;;;5006098;28;20084;-57
2023/08/18 11:30:10;;;;;;;5.53;3.53;;;40.50;67.70;;;;;;5006183;28;20018;-58
2023/08/18 11:32:37;;;;;;;4.07;3.75;;;40.60;68.10;;;;;;5005998;28;20084;-58
2023/08/18 11:35:04;;;;;;;6.38;3.88;;;40.60;66.80;;;;;;5007210;28;20022;-58
2023/08/18 11:37:30;;;;;;;6.93;3.88;;;40.00;67.50;;;;;;5005888;28;20026;-57
2023/08/18 11:39:56;;;;;;;8.65;4.88;;;40.00;68.80;;;;;;5007353;28;20147;-59
2023/08/18 11:42:21;;;;;;;4.78;4.25;;;39.50;68.00;;;;;;5007073;28;20518;-57
2023/08/18 11:44:51;;;;;;;4.07;3.70;;;39.80;68.40;;;;;;5007047;28;20257;-58
2023/08/18 11:47:17;;;;;;;5.50;4.32;;;39.50;69.00;;;;;;5006364;28;20489;-58
2023/08/18 11:49:44;;;;;;;4.93;3.85;;;40.10;69.80;;;;;;5006102;28;20030;-58
2023/08/18 11:52:09;;;;;;;6.43;3.65;;;40.10;69.10;;;;;;5007065;28;20014;-58
2023/08/18 11:54:38;;;;;;;4.57;3.70;;;40.20;68.70;;;;;;5006823;28;20539;-58
2023/08/18 11:57:05;;;;;;;5.30;3.88;;;40.50;69.40;;;;;;5006790;28;20018;-58
2023/08/18 11:59:32;;;;;;;6.03;4.18;;;40.40;68.00;;;;;;5006903;28;20026;-58
2023/08/18 12:02:04;;;;;;;7.47;4.00;;;40.40;68.60;;;;;;5005694;28;20339;-58
2023/08/18 12:04:34;;;;;;;5.50;4.32;;;39.60;68.00;;;;;;5006947;28;20209;-58
2023/08/18 12:07:00;;;;;;;6.50;5.10;;;39.40;69.50;;;;;;5006707;28;20022;-58
2023/08/18 12:09:25;;;;;;;5.82;4.55;;;38.40;69.40;;;;;;5006806;28;20071;-56
2023/08/18 12:11:51;;;;;;;6.97;5.22;;;38.40;70.60;;;;;;5006873;28;20071;-56
2023/08/18 12:14:17;;;;;;;7.60;5.20;;;38.20;71.30;;;;;;5006336;28;20026;-56
2023/08/18 12:16:44;;;;;;;5.07;4.57;;;37.70;72.20;;;;;;4997203;28;20457;-56
2023/08/18 12:19:11;;;;;;;6.28;5.68;;;37.10;73.90;;;;;;5006840;28;20046;-56
2023/08/18 12:21:37;;;;;;;7.55;5.55;;;36.80;72.60;;;;;;5006715;28;20022;-56
2023/08/18 12:24:04;;;;;;;5.50;5.00;;;36.30;73.60;;;;;;5005200;28;20478;-56
2023/08/18 12:26:33;;;;;;;7.35;5.50;;;35.80;76.00;;;;;;5006904;28;20018;-57
2023/08/18 12:28:58;;;;;;;5.50;5.00;;;35.60;76.20;;;;;;5006773;28;20030;-57
2023/08/18 12:31:24;;;;;;;7.35;6.13;;;35.30;78.80;;;;;;5006760;28;20529;-57
2023/08/18 12:33:53;;;;;;;8.35;5.70;;;34.90;79.00;;;;;;5006474;28;20044;-57
2023/08/18 12:36:19;;;;;;;8.25;6.18;;;34.90;76.80;;;;;;5006720;28;20382;-57
2023/08/18 12:38:46;;;;;;;8.57;6.18;;;34.60;78.80;;;;;;4998674;28;20079;-57